createdAt,value
2023-09-04T00:00:54.406Z,23.37
2023-09-04T00:03:20.742Z,23.38
2023-09-04T00:05:49.128Z,23.42
2023-09-04T00:08:15.458Z,23.39
2023-09-04T00:10:41.790Z,23.42
2023-09-04T00:13:08.121Z,23.37
2023-09-04T00:15:34.438Z,23.34
2023-09-04T00:18:00.812Z,23.36
2023-09-04T00:20:27.240Z,23.28
2023-09-04T00:22:55.847Z,23.31
2023-09-04T00:25:22.133Z,23.27
2023-09-04T00:27:48.480Z,23.25
2023-09-04T00:30:20.378Z,23.31
2023-09-04T00:32:46.740Z,23.29
2023-09-04T00:35:13.111Z,23.27
2023-09-04T00:37:39.475Z,23.23
2023-09-04T00:40:05.797Z,23.17
2023-09-04T00:42:34.989Z,23.13
2023-09-04T00:45:10.294Z,23.11
2023-09-04T00:47:52.124Z,23.11
2023-09-04T00:50:28.716Z,23.15
2023-09-04T00:52:55.056Z,23.09
2023-09-04T00:55:41.655Z,23.02
2023-09-04T00:58:31.122Z,23.05
2023-09-04T01:01:20.556Z,23.00
2023-09-04T01:04:19.157Z,23.02
2023-09-04T01:07:08.996Z,22.96
2023-09-04T01:09:55.628Z,23.00
2023-09-04T01:12:42.231Z,23.02
2023-09-04T01:15:21.013Z,22.94
2023-09-04T01:17:57.579Z,22.98
2023-09-04T01:20:44.244Z,23.03
2023-09-04T01:23:21.015Z,23.00
2023-09-04T01:26:06.243Z,22.96
2023-09-04T01:29:08.041Z,22.98
2023-09-04T01:32:00.569Z,22.95
2023-09-04T01:34:47.246Z,22.93
2023-09-04T01:37:48.994Z,22.91
2023-09-04T01:40:33.701Z,22.86
2023-09-04T01:43:05.263Z,22.71
2023-09-04T01:46:00.752Z,22.79
2023-09-04T01:48:38.674Z,22.75
2023-09-04T01:51:23.609Z,22.78
2023-09-04T01:54:15.793Z,22.87
2023-09-04T01:57:00.486Z,22.88
2023-09-04T01:59:45.341Z,22.81
2023-09-04T02:02:30.223Z,22.72
2023-09-04T02:05:15.099Z,22.64
2023-09-04T02:07:59.804Z,22.66
2023-09-04T02:11:04.259Z,22.62
2023-09-04T02:13:49.417Z,22.63
2023-09-04T02:16:34.191Z,22.66
2023-09-04T02:19:19.471Z,22.62
2023-09-04T02:22:04.223Z,22.64
2023-09-04T02:24:49.005Z,22.63
2023-09-04T02:27:33.954Z,22.53
2023-09-04T02:30:18.725Z,22.64
2023-09-04T02:33:03.596Z,22.59
2023-09-04T02:35:55.817Z,22.60
2023-09-04T02:38:40.716Z,22.64
2023-09-04T02:41:25.710Z,22.64
2023-09-04T02:44:15.087Z,22.56
2023-09-04T02:47:10.490Z,22.68
2023-09-04T02:49:42.545Z,22.59
2023-09-04T02:52:29.112Z,22.54
2023-09-04T02:55:14.171Z,22.52
2023-09-04T02:58:01.841Z,22.62
2023-09-04T03:00:47.091Z,22.56
2023-09-04T03:03:31.869Z,22.52
2023-09-04T03:06:17.083Z,22.56
2023-09-04T03:09:01.909Z,22.54
2023-09-04T03:11:46.658Z,22.58
2023-09-04T03:14:31.509Z,22.60
2023-09-04T03:17:16.352Z,22.58
2023-09-04T03:20:01.365Z,22.60
2023-09-04T03:22:46.103Z,22.52
2023-09-04T03:25:32.668Z,22.51
2023-09-04T03:28:17.491Z,22.59
2023-09-04T03:31:02.683Z,22.50
2023-09-04T03:33:47.869Z,22.55
2023-09-04T03:36:32.674Z,22.54
2023-09-04T03:39:17.536Z,22.48
2023-09-04T03:42:02.410Z,22.43
2023-09-04T03:44:47.084Z,22.47
2023-09-04T03:47:31.848Z,22.50
2023-09-04T03:50:02.393Z,22.51
2023-09-04T03:52:28.763Z,22.42
2023-09-04T03:55:18.196Z,22.43
2023-09-04T03:57:46.620Z,22.42
2023-09-04T04:00:18.943Z,22.39
2023-09-04T04:02:50.676Z,22.46
2023-09-04T04:05:17.137Z,22.44
2023-09-04T04:08:03.760Z,22.45
2023-09-04T04:10:32.702Z,22.39
2023-09-04T04:13:01.704Z,22.48
2023-09-04T04:15:51.926Z,22.50
2023-09-04T04:18:41.325Z,22.27
2023-09-04T04:21:10.190Z,22.41
2023-09-04T04:23:36.590Z,22.36
2023-09-04T04:26:41.112Z,22.37
2023-09-04T04:29:14.827Z,22.42
2023-09-04T04:31:49.678Z,22.33
2023-09-04T04:34:24.440Z,22.36
2023-09-04T04:37:11.003Z,22.36
2023-09-04T04:40:03.315Z,22.36
2023-09-04T04:42:35.492Z,22.38
2023-09-04T04:45:07.515Z,22.38
2023-09-04T04:47:33.813Z,22.41
2023-09-04T04:50:18.729Z,22.34
2023-09-04T04:53:14.396Z,22.41
2023-09-04T04:56:13.915Z,22.32
2023-09-04T04:59:06.130Z,22.35
2023-09-04T05:01:44.597Z,22.41
2023-09-04T05:04:19.883Z,22.32
2023-09-04T05:06:46.196Z,22.32
2023-09-04T05:09:12.502Z,22.33
2023-09-04T05:11:45.893Z,22.33
2023-09-04T05:14:12.256Z,22.29
2023-09-04T05:16:38.624Z,22.33
2023-09-04T05:19:04.968Z,22.36
2023-09-04T05:21:55.620Z,22.34
2023-09-04T05:24:28.538Z,22.25
2023-09-04T05:26:57.589Z,22.34
2023-09-04T05:29:47.093Z,22.35
2023-09-04T05:32:13.390Z,22.36
2023-09-04T05:34:58.258Z,22.36
2023-09-04T05:37:24.619Z,22.37
2023-09-04T05:39:52.952Z,22.39
2023-09-04T05:42:21.907Z,22.37
2023-09-04T05:44:48.191Z,22.35
2023-09-04T05:47:20.415Z,22.29
2023-09-04T05:49:46.747Z,22.33
2023-09-04T05:52:16.070Z,22.31
2023-09-04T05:54:42.351Z,22.36
2023-09-04T05:57:15.861Z,22.41
2023-09-04T05:59:42.157Z,22.44
2023-09-04T06:02:08.428Z,22.36
2023-09-04T06:04:34.751Z,22.40
2023-09-04T06:07:01.138Z,22.40
2023-09-04T06:09:27.537Z,22.44
2023-09-04T06:11:59.529Z,22.39
2023-09-04T06:14:28.725Z,22.41
2023-09-04T06:16:55.098Z,22.37
2023-09-04T06:19:21.421Z,22.45
2023-09-04T06:21:50.332Z,22.42
2023-09-04T06:24:16.701Z,22.48
2023-09-04T06:26:42.974Z,22.47
2023-09-04T06:29:09.253Z,22.46
2023-09-04T06:31:35.577Z,22.49
2023-09-04T06:34:13.976Z,22.52
2023-09-04T06:36:40.262Z,22.53
2023-09-04T06:39:06.582Z,22.56
2023-09-04T06:41:32.905Z,22.56
2023-09-04T06:43:59.195Z,22.55
2023-09-04T06:46:25.635Z,22.53
2023-09-04T06:48:52.010Z,22.48
2023-09-04T06:51:18.339Z,22.51
2023-09-04T06:53:44.634Z,22.51
2023-09-04T06:56:10.952Z,22.53
2023-09-04T06:58:37.307Z,22.51
2023-09-04T07:01:06.195Z,22.52
2023-09-04T07:03:32.540Z,22.53
2023-09-04T07:06:01.447Z,22.59
2023-09-04T07:08:27.725Z,22.58
2023-09-04T07:10:56.718Z,22.57
2023-09-04T07:13:23.289Z,22.62
2023-09-04T07:15:49.845Z,22.61
2023-09-04T07:18:16.273Z,22.62
2023-09-04T07:20:42.638Z,22.64
2023-09-04T07:23:29.732Z,22.70
2023-09-04T07:25:58.366Z,22.75
2023-09-04T07:28:24.775Z,22.71
2023-09-04T07:30:51.089Z,22.71
2023-09-04T07:33:17.414Z,22.76
2023-09-04T07:35:43.702Z,22.75
2023-09-04T07:38:10.058Z,22.81
2023-09-04T07:40:36.555Z,22.79
2023-09-04T07:43:02.869Z,22.81
2023-09-04T07:45:29.205Z,22.81
2023-09-04T07:47:55.547Z,22.81
2023-09-04T07:50:21.920Z,22.86
2023-09-04T07:52:51.155Z,22.87
2023-09-04T07:55:17.445Z,22.90
2023-09-04T07:57:43.734Z,22.90
2023-09-04T08:00:10.004Z,22.88
2023-09-04T08:02:36.278Z,22.90
2023-09-04T08:05:02.589Z,22.91
2023-09-04T08:07:58.200Z,22.93
2023-09-04T08:10:24.538Z,22.95
2023-09-04T08:12:50.886Z,22.99
2023-09-04T08:15:17.183Z,22.99
2023-09-04T08:17:49.608Z,23.05
2023-09-04T08:20:16.068Z,23.09
2023-09-04T08:22:44.537Z,23.13
2023-09-04T08:25:10.841Z,23.10
2023-09-04T08:27:39.839Z,23.16
2023-09-04T08:30:06.210Z,23.18
2023-09-04T08:32:32.634Z,23.18
2023-09-04T08:34:58.928Z,23.22
2023-09-04T08:37:27.794Z,23.23
2023-09-04T08:39:57.357Z,23.26
2023-09-04T08:42:23.705Z,23.32
2023-09-04T08:44:50.041Z,23.37
2023-09-04T08:47:16.364Z,23.42
2023-09-04T08:49:42.728Z,23.44
2023-09-04T08:52:09.033Z,23.44
2023-09-04T08:54:35.338Z,23.45
2023-09-04T08:57:01.646Z,23.48
2023-09-04T08:59:28.033Z,23.54
2023-09-04T09:01:54.388Z,23.58
2023-09-04T09:04:20.844Z,23.60
2023-09-04T09:06:47.228Z,23.65
2023-09-04T09:09:13.573Z,23.69
2023-09-04T09:11:47.009Z,23.77
2023-09-04T09:14:13.313Z,23.79
2023-09-04T09:16:42.257Z,23.84
2023-09-04T09:19:08.592Z,23.96
2023-09-04T09:21:36.990Z,23.99
2023-09-04T09:24:03.337Z,24.03
2023-09-04T09:26:32.582Z,24.07
2023-09-04T09:28:58.900Z,24.13
2023-09-04T09:31:25.202Z,24.16
2023-09-04T09:33:54.133Z,24.21
2023-09-04T09:36:20.483Z,24.24
2023-09-04T09:38:46.809Z,24.29
2023-09-04T09:41:13.103Z,24.33
2023-09-04T09:43:39.414Z,24.39
2023-09-04T09:46:05.809Z,24.41
2023-09-04T09:48:39.764Z,24.45
2023-09-04T09:51:06.079Z,24.46
2023-09-04T09:53:32.418Z,24.54
2023-09-04T09:55:58.808Z,24.62
2023-09-04T09:58:27.740Z,24.68
2023-09-04T10:00:54.097Z,24.74
2023-09-04T10:03:20.534Z,24.84
2023-09-04T10:05:46.910Z,24.87
2023-09-04T10:08:13.188Z,24.95
2023-09-04T10:10:42.312Z,25.03
2023-09-04T10:13:08.600Z,25.10
2023-09-04T10:15:37.293Z,25.14
2023-09-04T10:18:03.674Z,25.21
2023-09-04T10:20:32.482Z,25.26
2023-09-04T10:23:01.524Z,25.35
2023-09-04T10:25:27.932Z,25.41
2023-09-04T10:27:54.268Z,25.47
2023-09-04T10:30:20.621Z,25.47
2023-09-04T10:32:46.994Z,25.49
2023-09-04T10:35:13.337Z,25.55
2023-09-04T10:37:42.369Z,25.59
2023-09-04T10:40:08.658Z,25.69
2023-09-04T10:42:34.990Z,25.74
2023-09-04T10:45:01.311Z,25.80
2023-09-04T10:47:27.661Z,25.88
2023-09-04T10:49:54.081Z,25.97
2023-09-04T10:52:22.939Z,26.01
2023-09-04T10:54:49.251Z,26.02
2023-09-04T10:57:15.563Z,26.05
2023-09-04T10:59:44.880Z,26.09
2023-09-04T11:02:11.427Z,26.10
2023-09-04T11:04:37.757Z,26.19
2023-09-04T11:07:04.179Z,26.23
2023-09-04T11:09:30.509Z,26.31
2023-09-04T11:11:56.825Z,26.39
2023-09-04T11:14:23.112Z,26.49
2023-09-04T11:16:49.457Z,26.57
2023-09-04T11:19:15.812Z,26.67
2023-09-04T11:21:42.228Z,26.72
2023-09-04T11:24:08.585Z,26.77
2023-09-04T11:26:34.985Z,26.87
2023-09-04T11:29:01.401Z,26.96
2023-09-04T11:31:28.026Z,27.07
2023-09-04T11:33:54.372Z,27.11
2023-09-04T11:36:20.683Z,27.17
2023-09-04T11:38:46.967Z,27.21
2023-09-04T11:41:13.346Z,27.31
2023-09-04T11:43:39.626Z,27.42
2023-09-04T11:46:11.990Z,27.54
2023-09-04T11:48:44.075Z,27.43
2023-09-04T11:51:10.388Z,27.26
2023-09-04T11:53:38.905Z,27.07
2023-09-04T11:56:05.217Z,27.00
2023-09-04T11:58:31.643Z,26.98
2023-09-04T12:00:58.543Z,26.97
2023-09-04T12:03:25.187Z,26.94
2023-09-04T12:05:51.729Z,26.62
2023-09-04T12:08:18.043Z,26.98
2023-09-04T12:10:44.372Z,27.00
2023-09-04T12:13:10.655Z,27.04
2023-09-04T12:15:45.771Z,27.06
2023-09-04T12:18:12.158Z,27.06
2023-09-04T12:20:38.459Z,27.09
2023-09-04T12:23:04.758Z,27.13
2023-09-04T12:25:31.042Z,27.18
2023-09-04T12:27:59.546Z,27.21
2023-09-04T12:30:25.927Z,27.25
2023-09-04T12:32:52.269Z,27.31
2023-09-04T12:35:18.663Z,27.35
2023-09-04T12:37:45.019Z,27.38
2023-09-04T12:40:11.379Z,27.45
2023-09-04T12:42:37.711Z,27.51
2023-09-04T12:45:06.902Z,27.56
2023-09-04T12:47:33.324Z,27.61
2023-09-04T12:49:59.639Z,27.61
2023-09-04T12:52:25.943Z,27.68
2023-09-04T12:54:52.302Z,27.73
2023-09-04T12:57:18.594Z,27.75
2023-09-04T12:59:44.872Z,27.77
2023-09-04T13:02:11.257Z,27.84
2023-09-04T13:04:37.604Z,27.87
2023-09-04T13:07:03.966Z,27.92
2023-09-04T13:09:30.272Z,27.99
2023-09-04T13:11:56.582Z,28.03
2023-09-04T13:14:22.918Z,28.08
2023-09-04T13:16:49.372Z,28.13
2023-09-04T13:19:15.789Z,28.18
2023-09-04T13:21:42.154Z,28.23
2023-09-04T13:24:08.477Z,28.28
2023-09-04T13:26:34.801Z,28.32
2023-09-04T13:29:01.080Z,28.37
2023-09-04T13:31:27.492Z,28.42
2023-09-04T13:33:53.871Z,28.47
2023-09-04T13:36:20.200Z,28.49
2023-09-04T13:38:46.513Z,28.53
2023-09-04T13:41:12.843Z,28.56
2023-09-04T13:43:39.146Z,28.62
2023-09-04T13:46:05.485Z,28.65
2023-09-04T13:48:31.828Z,28.67
2023-09-04T13:50:58.192Z,28.74
2023-09-04T13:53:24.792Z,28.78
2023-09-04T13:55:51.284Z,28.81
2023-09-04T13:58:17.581Z,28.86
2023-09-04T14:00:43.913Z,28.70
2023-09-04T14:03:10.253Z,28.93
2023-09-04T14:05:36.560Z,28.97
2023-09-04T14:08:02.920Z,29.02
2023-09-04T14:10:29.340Z,29.04
2023-09-04T14:12:55.653Z,29.09
2023-09-04T14:15:21.972Z,29.12
2023-09-04T14:17:48.354Z,29.19
2023-09-04T14:20:17.681Z,29.21
2023-09-04T14:22:43.956Z,29.28
2023-09-04T14:25:10.232Z,29.31
2023-09-04T14:27:36.632Z,29.32
2023-09-04T14:30:02.921Z,29.34
2023-09-04T14:32:29.434Z,29.35
2023-09-04T14:34:55.751Z,29.41
2023-09-04T14:37:22.119Z,29.42
2023-09-04T14:39:48.400Z,29.47
2023-09-04T14:42:14.772Z,29.50
2023-09-04T14:44:42.784Z,29.54
2023-09-04T14:47:10.476Z,29.56
2023-09-04T14:49:36.788Z,29.60
2023-09-04T14:52:03.112Z,29.64
2023-09-04T14:54:31.965Z,29.67
2023-09-04T14:56:58.301Z,29.70
2023-09-04T14:59:25.819Z,29.75
2023-09-04T15:01:52.260Z,29.78
2023-09-04T15:04:18.720Z,29.81
2023-09-04T15:06:45.016Z,29.80
2023-09-04T15:09:11.298Z,29.83
2023-09-04T15:11:37.749Z,29.87
2023-09-04T15:14:04.087Z,29.86
2023-09-04T15:16:30.375Z,29.91
2023-09-04T15:18:56.727Z,29.95
2023-09-04T15:21:23.065Z,29.96
2023-09-04T15:23:49.352Z,30.01
2023-09-04T15:26:15.687Z,29.98
2023-09-04T15:28:42.051Z,30.01
2023-09-04T15:31:08.405Z,30.03
2023-09-04T15:33:34.744Z,30.07
2023-09-04T15:36:01.106Z,30.10
2023-09-04T15:38:27.506Z,30.13
2023-09-04T15:40:56.011Z,30.13
2023-09-04T15:43:22.414Z,30.13
2023-09-04T15:45:49.025Z,30.18
2023-09-04T15:48:15.674Z,30.19
2023-09-04T15:50:42.004Z,30.22
2023-09-04T15:53:08.317Z,30.27
2023-09-04T15:55:34.693Z,30.26
2023-09-04T15:58:00.993Z,30.25
2023-09-04T16:00:27.435Z,30.24
2023-09-04T16:02:53.839Z,30.25
2023-09-04T16:05:20.194Z,30.27
2023-09-04T16:07:46.579Z,30.26
2023-09-04T16:10:12.915Z,30.29
2023-09-04T16:12:39.295Z,30.27
2023-09-04T16:15:05.652Z,30.28
2023-09-04T16:17:32.076Z,30.31
2023-09-04T16:19:58.424Z,30.30
2023-09-04T16:22:24.766Z,30.30
2023-09-04T16:24:51.086Z,30.30
2023-09-04T16:27:17.369Z,30.32
2023-09-04T16:29:43.655Z,30.35
2023-09-04T16:32:09.985Z,30.37
2023-09-04T16:34:36.301Z,30.33
2023-09-04T16:37:02.587Z,30.34
2023-09-04T16:39:28.934Z,30.33
2023-09-04T16:41:55.254Z,30.28
2023-09-04T16:44:21.569Z,30.26
2023-09-04T16:46:47.884Z,30.28
2023-09-04T16:49:14.186Z,30.24
2023-09-04T16:51:53.987Z,30.26
2023-09-04T16:54:22.285Z,30.20
2023-09-04T16:56:50.893Z,30.24
2023-09-04T16:59:17.247Z,30.24
2023-09-04T17:01:43.575Z,30.22
2023-09-04T17:04:09.951Z,30.22
2023-09-04T17:06:36.243Z,29.81
2023-09-04T17:09:02.552Z,30.21
2023-09-04T17:11:28.976Z,30.18
2023-09-04T17:13:55.525Z,30.16
2023-09-04T17:16:21.833Z,30.20
2023-09-04T17:18:48.219Z,30.11
2023-09-04T17:21:14.528Z,30.06
2023-09-04T17:23:40.799Z,30.04
2023-09-04T17:26:07.134Z,30.03
2023-09-04T17:28:33.507Z,30.02
2023-09-04T17:30:59.868Z,30.01
2023-09-04T17:33:26.340Z,30.05
2023-09-04T17:35:52.616Z,30.07
2023-09-04T17:38:21.779Z,30.04
2023-09-04T17:40:48.108Z,30.05
2023-09-04T17:43:14.376Z,30.01
2023-09-04T17:45:40.709Z,30.02
2023-09-04T17:48:07.218Z,29.99
2023-09-04T17:50:33.565Z,29.98
2023-09-04T17:52:59.918Z,29.97
2023-09-04T17:55:26.356Z,29.92
2023-09-04T17:57:52.706Z,29.90
2023-09-04T18:00:19.075Z,29.89
2023-09-04T18:02:48.365Z,29.82
2023-09-04T18:05:14.864Z,29.82
2023-09-04T18:07:41.137Z,29.79
2023-09-04T18:10:07.432Z,29.75
2023-09-04T18:12:33.824Z,29.54
2023-09-04T18:15:00.142Z,29.65
2023-09-04T18:17:26.525Z,29.65
2023-09-04T18:19:52.860Z,29.72
2023-09-04T18:22:19.252Z,29.65
2023-09-04T18:24:45.622Z,29.60
2023-09-04T18:27:11.958Z,29.55
2023-09-04T18:29:38.285Z,29.50
2023-09-04T18:32:04.626Z,29.49
2023-09-04T18:34:30.920Z,29.53
2023-09-04T18:36:57.278Z,29.46
2023-09-04T18:39:23.566Z,29.48
2023-09-04T18:41:49.932Z,29.35
2023-09-04T18:44:16.245Z,29.37
2023-09-04T18:46:42.604Z,29.08
2023-09-04T18:49:08.988Z,29.26
2023-09-04T18:51:35.305Z,29.14
2023-09-04T18:54:01.625Z,28.92
2023-09-04T18:56:28.015Z,28.91
2023-09-04T18:58:54.450Z,28.55
2023-09-04T19:01:20.821Z,28.78
2023-09-04T19:03:47.179Z,28.82
2023-09-04T19:06:13.452Z,28.73
2023-09-04T19:08:39.766Z,28.73
2023-09-04T19:11:06.133Z,28.69
2023-09-04T19:13:32.540Z,28.83
2023-09-04T19:15:58.953Z,28.78
2023-09-04T19:18:25.467Z,28.87
2023-09-04T19:20:51.943Z,28.86
2023-09-04T19:23:18.330Z,28.94
2023-09-04T19:25:44.615Z,28.92
2023-09-04T19:28:10.890Z,28.90
2023-09-04T19:30:37.218Z,28.86
2023-09-04T19:33:03.594Z,28.84
2023-09-04T19:35:34.804Z,28.76
2023-09-04T19:38:02.308Z,28.74
2023-09-04T19:40:28.580Z,28.70
2023-09-04T19:42:57.254Z,28.68
2023-09-04T19:45:23.571Z,28.67
2023-09-04T19:47:49.883Z,28.64
2023-09-04T19:50:16.310Z,28.61
2023-09-04T19:52:42.628Z,28.61
2023-09-04T19:55:08.907Z,28.59
2023-09-04T19:57:35.268Z,28.57
2023-09-04T20:00:01.584Z,28.56
2023-09-04T20:02:28.033Z,28.51
2023-09-04T20:04:54.361Z,28.49
2023-09-04T20:07:20.677Z,28.46
2023-09-04T20:09:49.216Z,28.44
2023-09-04T20:12:16.537Z,28.37
2023-09-04T20:14:42.815Z,28.38
2023-09-04T20:17:09.141Z,28.34
2023-09-04T20:19:35.463Z,28.31
2023-09-04T20:22:01.784Z,28.29
2023-09-04T20:24:28.104Z,28.27
2023-09-04T20:26:54.475Z,28.24
2023-09-04T20:29:20.816Z,28.19
2023-09-04T20:31:49.814Z,28.11
2023-09-04T20:34:16.106Z,28.04
2023-09-04T20:36:42.452Z,27.98
2023-09-04T20:39:08.861Z,27.90
2023-09-04T20:41:35.139Z,27.86
2023-09-04T20:44:01.482Z,27.82
2023-09-04T20:46:27.810Z,27.81
2023-09-04T20:48:54.173Z,27.80
2023-09-04T20:51:20.493Z,27.78
2023-09-04T20:53:46.825Z,27.76
2023-09-04T20:56:13.092Z,27.73
2023-09-04T20:58:41.567Z,27.71
2023-09-04T21:01:08.179Z,27.68
2023-09-04T21:03:34.539Z,27.67
2023-09-04T21:06:00.819Z,27.62
2023-09-04T21:08:27.190Z,27.58
2023-09-04T21:10:53.484Z,27.54
2023-09-04T21:13:19.808Z,27.52
2023-09-04T21:15:46.146Z,27.46
2023-09-04T21:18:12.464Z,27.44
2023-09-04T21:20:38.816Z,27.42
2023-09-04T21:23:05.122Z,27.40
2023-09-04T21:25:34.095Z,27.37
2023-09-04T21:28:00.421Z,27.34
2023-09-04T21:30:26.865Z,27.30
2023-09-04T21:32:53.274Z,27.28
2023-09-04T21:35:19.621Z,27.26
2023-09-04T21:37:45.947Z,27.23
2023-09-04T21:40:12.234Z,27.19
2023-09-04T21:42:38.531Z,27.16
2023-09-04T21:45:04.882Z,27.12
2023-09-04T21:47:31.236Z,27.09
2023-09-04T21:49:57.657Z,27.05
2023-09-04T21:52:24.019Z,27.04
2023-09-04T21:54:50.375Z,27.00
2023-09-04T21:57:16.670Z,26.99
2023-09-04T21:59:42.968Z,26.94
2023-09-04T22:02:09.288Z,26.91
2023-09-04T22:04:35.582Z,26.91
2023-09-04T22:07:01.909Z,26.89
2023-09-04T22:09:28.255Z,26.86
2023-09-04T22:11:54.593Z,26.84
2023-09-04T22:14:20.937Z,26.81
2023-09-04T22:16:59.429Z,26.79
2023-09-04T22:19:27.355Z,26.76
2023-09-04T22:21:53.698Z,26.74
2023-09-04T22:24:20.026Z,26.69
2023-09-04T22:26:46.319Z,26.68
2023-09-04T22:29:12.632Z,26.66
2023-09-04T22:31:39.016Z,26.63
2023-09-04T22:34:05.367Z,26.61
2023-09-04T22:36:31.693Z,26.60
2023-09-04T22:38:57.983Z,26.61
2023-09-04T22:41:24.266Z,26.54
2023-09-04T22:43:50.550Z,26.51
2023-09-04T22:46:16.928Z,26.48
2023-09-04T22:48:43.330Z,26.46
2023-09-04T22:51:09.667Z,26.46
2023-09-04T22:53:35.989Z,26.43
2023-09-04T22:56:02.333Z,26.41
2023-09-04T22:58:28.642Z,26.43
2023-09-04T23:00:55.091Z,26.39
2023-09-04T23:03:21.474Z,26.34
2023-09-04T23:05:47.821Z,26.32
2023-09-04T23:08:14.126Z,26.30
2023-09-04T23:10:40.415Z,26.26
2023-09-04T23:13:06.733Z,26.22
2023-09-04T23:15:33.039Z,26.21
2023-09-04T23:20:44.283Z,26.12
2023-09-04T23:23:10.592Z,26.13
2023-09-04T23:25:36.920Z,26.12
2023-09-04T23:28:03.242Z,26.06
2023-09-04T23:30:29.768Z,26.06
2023-09-04T23:32:56.142Z,26.03
2023-09-04T23:35:22.496Z,25.98
2023-09-04T23:37:48.796Z,25.98
2023-09-04T23:40:15.076Z,26.01
2023-09-04T23:42:41.405Z,26.01
2023-09-04T23:45:07.692Z,25.92
2023-09-04T23:47:34.055Z,25.90
2023-09-04T23:50:00.356Z,25.88
2023-09-04T23:52:26.668Z,25.95
2023-09-04T23:54:52.976Z,25.92
2023-09-04T23:57:19.342Z,25.88
2023-09-04T23:59:45.647Z,25.89
